This is the latest recevied weather packets stored in our database for station/object DL5DI-H. If no packets are shown the sender has not sent any weather packets the latest 10 day(s).
| Time | Temp. | Humidity | Pressure | Rain* | Wind** | Luminosity | Snow |
|---|---|---|---|---|---|---|---|
| 1777022404 | 11.67° C | 59% | 1024 hPa | 0 mm | - | - | - |
| 1777021804 | 11.67° C | 61% | 1023.9 hPa | 0 mm | - | - | - |
| 1777021204 | 11.11° C | 64% | 1024 hPa | 0 mm | - | - | - |
| 1777020604 | 11.11° C | 68% | 1023.9 hPa | 0 mm | - | - | - |
| 1777020000 | 8.89° C | 78% | 1024.1 hPa | 0 mm | - | - | - |
| 1777019405 | 8.89° C | 78% | 1024.1 hPa | 0 mm | - | - | - |
| 1777018805 | 8.89° C | 78% | 1024.1 hPa | 0 mm | - | - | - |
| 1777018200 | 8.89° C | 78% | 1024.1 hPa | 0 mm | - | - | - |
| 1777017605 | 8.89° C | 78% | 1024.1 hPa | 0 mm | - | - | - |
| 1777017005 | 8.33° C | 80% | 1024.1 hPa | 0 mm | - | - | - |
| 1777016402 | 7.78° C | 81% | 1024.2 hPa | 0 mm | - | - | - |
| 1777015805 | 7.22° C | 81% | 1024.3 hPa | 0 mm | - | - | - |
| 1777015200 | 6.67° C | 81% | 1024.3 hPa | 0 mm | - | - | - |
| 1777014604 | 6.67° C | 80% | 1024.6 hPa | 0 mm | - | - | - |
| 1777014000 | 6.11° C | 81% | 1024.7 hPa | 0 mm | - | - | - |
| 1777013400 | 6.11° C | 81% | 1024.7 hPa | 0 mm | - | - | - |
| 1777012801 | 5° C | 80% | 1024.9 hPa | 0 mm | - | - | - |
| 1777012205 | 5° C | 80% | 1024.9 hPa | 0 mm | - | - | - |
| 1777011604 | 5° C | 80% | 1024.9 hPa | 0 mm | - | - | - |
| 1777011000 | 5° C | 80% | 1024.9 hPa | 0 mm | - | - | - |
| 1777010404 | 5° C | 80% | 1024.9 hPa | 0 mm | - | - | - |
| 1777009805 | 4.44° C | 80% | 1024.8 hPa | 0 mm | - | - | - |
| 1777009201 | 4.44° C | 80% | 1024.7 hPa | 0 mm | - | - | - |
| 1777008600 | 4.44° C | 78% | 1024.8 hPa | 0 mm | - | - | - |
| 1777008004 | 4.44° C | 79% | 1024.8 hPa | 0 mm | - | - | - |
* Rain latest hour (hover to see other rain measurements)
** Current wind speed in m/s (hover to see current wind gust speed)